sensor_id;sensor_type;location;lat;lon;timestamp;pressure;altitude;pressure_sealevel;temperature;humidity
19783;BME280;10051;40.294;-3.754;2023-11-18T00:00:26;95216.53;;;12.58;100.00
19783;BME280;10051;40.294;-3.754;2023-11-18T00:02:52;95245.00;;;12.76;100.00
19783;BME280;10051;40.294;-3.754;2023-11-18T00:05:17;95193.03;;;12.41;100.00
19783;BME280;10051;40.294;-3.754;2023-11-18T00:07:43;95203.88;;;12.49;100.00
19783;BME280;10051;40.294;-3.754;2023-11-18T00:10:09;95229.16;;;12.66;100.00
19783;BME280;10051;40.294;-3.754;2023-11-18T00:12:36;95243.41;;;12.75;100.00
19783;BME280;10051;40.294;-3.754;2023-11-18T00:15:04;95226.81;;;12.64;100.00
19783;BME280;10051;40.294;-3.754;2023-11-18T00:17:32;95206.50;;;12.49;100.00
19783;BME280;10051;40.294;-3.754;2023-11-18T00:19:59;95201.75;;;12.46;100.00
19783;BME280;10051;40.294;-3.754;2023-11-18T00:22:24;95153.22;;;12.16;100.00
19783;BME280;10051;40.294;-3.754;2023-11-18T00:24:50;95219.69;;;12.39;100.00
19783;BME280;10051;40.294;-3.754;2023-11-18T00:27:17;95179.06;;;12.19;100.00
19783;BME280;10051;40.294;-3.754;2023-11-18T00:29:43;95155.34;;;12.04;100.00
19783;BME280;10051;40.294;-3.754;2023-11-18T00:32:11;95164.03;;;12.20;100.00
19783;BME280;10051;40.294;-3.754;2023-11-18T00:34:36;95202.28;;;12.48;100.00
19783;BME280;10051;40.294;-3.754;2023-11-18T00:37:02;95206.22;;;12.51;100.00
19783;BME280;10051;40.294;-3.754;2023-11-18T00:39:29;95172.22;;;12.24;100.00
19783;BME280;10051;40.294;-3.754;2023-11-18T00:41:54;95208.59;;;12.32;100.00
19783;BME280;10051;40.294;-3.754;2023-11-18T00:44:21;95129.97;;;11.77;100.00
19783;BME280;10051;40.294;-3.754;2023-11-18T00:46:47;95158.72;;;11.94;100.00
19783;BME280;10051;40.294;-3.754;2023-11-18T00:49:12;95074.63;;;11.46;100.00
19783;BME280;10051;40.294;-3.754;2023-11-18T00:51:38;95190.69;;;12.34;100.00
19783;BME280;10051;40.294;-3.754;2023-11-18T00:54:04;95114.16;;;11.82;100.00
19783;BME280;10051;40.294;-3.754;2023-11-18T00:56:33;95192.25;;;12.25;100.00
19783;BME280;10051;40.294;-3.754;2023-11-18T00:58:59;95189.59;;;12.14;100.00
19783;BME280;10051;40.294;-3.754;2023-11-18T01:01:26;95198.31;;;12.15;100.00
19783;BME280;10051;40.294;-3.754;2023-11-18T01:03:52;95168.75;;;11.92;100.00
19783;BME280;10051;40.294;-3.754;2023-11-18T01:06:19;95109.91;;;11.45;100.00
19783;BME280;10051;40.294;-3.754;2023-11-18T01:08:45;95193.81;;;12.00;100.00
19783;BME280;10051;40.294;-3.754;2023-11-18T01:11:10;95201.75;;;12.10;100.00
19783;BME280;10051;40.294;-3.754;2023-11-18T01:13:37;95128.38;;;11.60;100.00
19783;BME280;10051;40.294;-3.754;2023-11-18T01:16:03;95184.88;;;12.11;100.00
19783;BME280;10051;40.294;-3.754;2023-11-18T01:18:29;95151.34;;;11.86;100.00
19783;BME280;10051;40.294;-3.754;2023-11-18T01:20:55;95144.75;;;11.88;100.00
19783;BME280;10051;40.294;-3.754;2023-11-18T01:23:21;95178.56;;;12.12;100.00
19783;BME280;10051;40.294;-3.754;2023-11-18T01:25:47;95145.53;;;11.94;100.00
19783;BME280;10051;40.294;-3.754;2023-11-18T01:28:17;95168.25;;;12.05;100.00
19783;BME280;10051;40.294;-3.754;2023-11-18T01:30:43;95184.31;;;11.99;100.00
19783;BME280;10051;40.294;-3.754;2023-11-18T01:33:10;95044.25;;;10.97;100.00
19783;BME280;10051;40.294;-3.754;2023-11-18T01:35:36;95144.72;;;11.73;100.00
19783;BME280;10051;40.294;-3.754;2023-11-18T01:38:02;95124.69;;;11.56;100.00
19783;BME280;10051;40.294;-3.754;2023-11-18T01:40:28;95204.31;;;11.89;100.00
19783;BME280;10051;40.294;-3.754;2023-11-18T01:42:56;95098.78;;;11.17;100.00
19783;BME280;10051;40.294;-3.754;2023-11-18T01:45:22;95176.34;;;11.78;100.00
19783;BME280;10051;40.294;-3.754;2023-11-18T01:47:48;95196.94;;;11.97;100.00
19783;BME280;10051;40.294;-3.754;2023-11-18T01:50:14;95195.66;;;11.99;100.00
19783;BME280;10051;40.294;-3.754;2023-11-18T01:52:41;95192.78;;;12.01;100.00
19783;BME280;10051;40.294;-3.754;2023-11-18T01:55:07;95197.00;;;12.02;100.00
19783;BME280;10051;40.294;-3.754;2023-11-18T01:57:34;95185.06;;;11.73;100.00
19783;BME280;10051;40.294;-3.754;2023-11-18T02:00:00;95145.22;;;11.49;100.00
19783;BME280;10051;40.294;-3.754;2023-11-18T02:02:31;95164.22;;;11.67;100.00
19783;BME280;10051;40.294;-3.754;2023-11-18T02:04:58;95157.34;;;11.55;100.00
19783;BME280;10051;40.294;-3.754;2023-11-18T02:07:24;95184.69;;;11.39;100.00
19783;BME280;10051;40.294;-3.754;2023-11-18T02:09:50;95186.66;;;11.06;100.00
19783;BME280;10051;40.294;-3.754;2023-11-18T02:12:27;95183.69;;;10.92;100.00
19783;BME280;10051;40.294;-3.754;2023-11-18T02:14:57;95174.56;;;11.10;100.00
19783;BME280;10051;40.294;-3.754;2023-11-18T02:17:23;95173.34;;;11.33;100.00
19783;BME280;10051;40.294;-3.754;2023-11-18T02:19:52;95176.75;;;11.34;100.00
19783;BME280;10051;40.294;-3.754;2023-11-18T02:22:18;95107.34;;;10.86;100.00
19783;BME280;10051;40.294;-3.754;2023-11-18T02:24:44;95123.19;;;10.97;100.00
19783;BME280;10051;40.294;-3.754;2023-11-18T02:27:11;95157.00;;;11.26;100.00
19783;BME280;10051;40.294;-3.754;2023-11-18T02:29:41;95119.22;;;10.94;100.00
19783;BME280;10051;40.294;-3.754;2023-11-18T02:37:47;95163.63;;;11.44;100.00
19783;BME280;10051;40.294;-3.754;2023-11-18T02:40:28;95120.91;;;11.21;100.00
19783;BME280;10051;40.294;-3.754;2023-11-18T02:42:57;95142.00;;;11.37;100.00
19783;BME280;10051;40.294;-3.754;2023-11-18T02:45:26;95186.09;;;11.72;100.00
19783;BME280;10051;40.294;-3.754;2023-11-18T02:47:53;95143.38;;;11.44;100.00
19783;BME280;10051;40.294;-3.754;2023-11-18T02:50:25;95176.34;;;11.73;100.00
19783;BME280;10051;40.294;-3.754;2023-11-18T02:52:53;95145.75;;;11.51;100.00
19783;BME280;10051;40.294;-3.754;2023-11-18T02:55:19;95182.13;;;11.75;100.00
19783;BME280;10051;40.294;-3.754;2023-11-18T02:57:46;95185.81;;;11.74;100.00
19783;BME280;10051;40.294;-3.754;2023-11-18T03:00:13;95166.03;;;11.56;100.00
19783;BME280;10051;40.294;-3.754;2023-11-18T03:02:44;95108.81;;;11.20;100.00
19783;BME280;10051;40.294;-3.754;2023-11-18T03:05:12;95124.63;;;11.25;100.00
19783;BME280;10051;40.294;-3.754;2023-11-18T03:07:38;95177.91;;;11.64;100.00
19783;BME280;10051;40.294;-3.754;2023-11-18T03:10:05;95167.09;;;11.65;100.00
19783;BME280;10051;40.294;-3.754;2023-11-18T03:12:36;95165.25;;;11.60;100.00
19783;BME280;10051;40.294;-3.754;2023-11-18T03:15:05;95148.63;;;11.55;100.00
19783;BME280;10051;40.294;-3.754;2023-11-18T03:17:31;95169.72;;;11.60;100.00
19783;BME280;10051;40.294;-3.754;2023-11-18T03:19:56;95140.97;;;11.43;100.00
19783;BME280;10051;40.294;-3.754;2023-11-18T03:22:22;95158.38;;;11.44;100.00
19783;BME280;10051;40.294;-3.754;2023-11-18T03:24:48;95150.19;;;11.35;100.00
19783;BME280;10051;40.294;-3.754;2023-11-18T03:27:14;95158.88;;;11.41;100.00
19783;BME280;10051;40.294;-3.754;2023-11-18T03:29:40;95076.25;;;10.73;100.00
19783;BME280;10051;40.294;-3.754;2023-11-18T03:32:06;95140.84;;;11.01;100.00
19783;BME280;10051;40.294;-3.754;2023-11-18T03:34:32;95101.25;;;10.76;100.00
19783;BME280;10051;40.294;-3.754;2023-11-18T03:36:58;95146.63;;;11.04;100.00
19783;BME280;10051;40.294;-3.754;2023-11-18T03:39:23;95136.66;;;11.11;100.00
19783;BME280;10051;40.294;-3.754;2023-11-18T03:41:52;95123.97;;;10.97;100.00
19783;BME280;10051;40.294;-3.754;2023-11-18T03:44:18;95102.34;;;10.80;100.00
19783;BME280;10051;40.294;-3.754;2023-11-18T03:46:43;95060.59;;;10.46;100.00
19783;BME280;10051;40.294;-3.754;2023-11-18T03:49:09;95007.31;;;10.18;100.00
19783;BME280;10051;40.294;-3.754;2023-11-18T03:51:35;95053.78;;;10.50;100.00
19783;BME280;10051;40.294;-3.754;2023-11-18T03:54:00;95100.50;;;10.85;100.00
19783;BME280;10051;40.294;-3.754;2023-11-18T03:56:26;95104.94;;;10.75;100.00
19783;BME280;10051;40.294;-3.754;2023-11-18T03:58:52;95089.06;;;10.59;100.00
19783;BME280;10051;40.294;-3.754;2023-11-18T04:01:22;95078.53;;;10.54;100.00
19783;BME280;10051;40.294;-3.754;2023-11-18T04:03:48;95078.00;;;10.57;100.00
19783;BME280;10051;40.294;-3.754;2023-11-18T04:06:13;95055.91;;;10.53;100.00
19783;BME280;10051;40.294;-3.754;2023-11-18T04:08:45;95040.63;;;10.50;100.00
19783;BME280;10051;40.294;-3.754;2023-11-18T04:11:11;95130.06;;;11.08;100.00
19783;BME280;10051;40.294;-3.754;2023-11-18T04:13:37;95074.66;;;10.72;100.00
19783;BME280;10051;40.294;-3.754;2023-11-18T04:16:02;95080.09;;;10.55;100.00
19783;BME280;10051;40.294;-3.754;2023-11-18T04:18:28;95109.88;;;10.66;100.00
19783;BME280;10051;40.294;-3.754;2023-11-18T04:20:54;95108.06;;;10.66;100.00
19783;BME280;10051;40.294;-3.754;2023-11-18T04:23:20;95120.75;;;10.85;100.00
19783;BME280;10051;40.294;-3.754;2023-11-18T04:25:45;95130.56;;;10.95;100.00
19783;BME280;10051;40.294;-3.754;2023-11-18T04:28:11;95027.59;;;10.27;100.00
19783;BME280;10051;40.294;-3.754;2023-11-18T04:30:36;95077.41;;;10.45;100.00
19783;BME280;10051;40.294;-3.754;2023-11-18T04:33:02;95130.75;;;10.78;100.00
19783;BME280;10051;40.294;-3.754;2023-11-18T04:35:29;95138.13;;;10.86;100.00
19783;BME280;10051;40.294;-3.754;2023-11-18T04:37:54;95143.41;;;10.91;100.00
19783;BME280;10051;40.294;-3.754;2023-11-18T04:40:20;95110.19;;;10.69;100.00
19783;BME280;10051;40.294;-3.754;2023-11-18T04:42:48;95041.41;;;10.45;100.00
19783;BME280;10051;40.294;-3.754;2023-11-18T04:45:13;95027.94;;;10.36;100.00
19783;BME280;10051;40.294;-3.754;2023-11-18T04:47:39;95112.88;;;10.90;100.00
19783;BME280;10051;40.294;-3.754;2023-11-18T04:50:07;95088.88;;;10.76;100.00
19783;BME280;10051;40.294;-3.754;2023-11-18T04:52:34;95052.47;;;10.47;100.00
19783;BME280;10051;40.294;-3.754;2023-11-18T04:55:00;95040.56;;;10.39;100.00
19783;BME280;10051;40.294;-3.754;2023-11-18T04:57:25;95071.69;;;10.53;100.00
19783;BME280;10051;40.294;-3.754;2023-11-18T04:59:51;95079.59;;;10.58;100.00
19783;BME280;10051;40.294;-3.754;2023-11-18T05:02:17;95102.22;;;10.59;100.00
19783;BME280;10051;40.294;-3.754;2023-11-18T05:04:42;95060.22;;;10.32;100.00
19783;BME280;10051;40.294;-3.754;2023-11-18T05:07:08;95097.22;;;10.58;100.00
19783;BME280;10051;40.294;-3.754;2023-11-18T05:09:33;95135.69;;;10.74;100.00
19783;BME280;10051;40.294;-3.754;2023-11-18T05:12:00;95114.22;;;10.45;100.00
19783;BME280;10051;40.294;-3.754;2023-11-18T05:14:26;95084.34;;;10.23;100.00
19783;BME280;10051;40.294;-3.754;2023-11-18T05:16:52;95147.75;;;10.65;100.00
19783;BME280;10051;40.294;-3.754;2023-11-18T05:19:17;95137.53;;;10.68;100.00
19783;BME280;10051;40.294;-3.754;2023-11-18T05:21:43;95060.91;;;10.11;100.00
19783;BME280;10051;40.294;-3.754;2023-11-18T05:24:09;95105.53;;;10.06;100.00
19783;BME280;10051;40.294;-3.754;2023-11-18T05:26:35;95080.25;;;9.62;100.00
19783;BME280;10051;40.294;-3.754;2023-11-18T05:29:00;95074.19;;;9.62;100.00
19783;BME280;10051;40.294;-3.754;2023-11-18T05:31:27;95156.13;;;10.24;100.00
19783;BME280;10051;40.294;-3.754;2023-11-18T05:33:53;95098.38;;;9.96;100.00
19783;BME280;10051;40.294;-3.754;2023-11-18T05:36:20;95157.78;;;10.30;100.00
19783;BME280;10051;40.294;-3.754;2023-11-18T05:38:53;95079.00;;;9.43;100.00
19783;BME280;10051;40.294;-3.754;2023-11-18T05:41:19;95068.00;;;9.18;100.00
19783;BME280;10051;40.294;-3.754;2023-11-18T05:43:53;95139.50;;;9.80;100.00
19783;BME280;10051;40.294;-3.754;2023-11-18T05:46:25;95138.56;;;9.97;100.00
19783;BME280;10051;40.294;-3.754;2023-11-18T05:48:53;95131.81;;;10.06;100.00
19783;BME280;10051;40.294;-3.754;2023-11-18T05:51:20;95100.88;;;9.81;100.00
19783;BME280;10051;40.294;-3.754;2023-11-18T05:53:47;95105.50;;;9.69;100.00
19783;BME280;10051;40.294;-3.754;2023-11-18T05:56:13;95141.34;;;9.85;100.00
19783;BME280;10051;40.294;-3.754;2023-11-18T05:58:39;95156.97;;;9.97;100.00
19783;BME280;10051;40.294;-3.754;2023-11-18T06:01:05;95150.53;;;9.82;100.00
19783;BME280;10051;40.294;-3.754;2023-11-18T06:03:33;95145.75;;;9.74;100.00
19783;BME280;10051;40.294;-3.754;2023-11-18T06:05:59;95108.81;;;9.59;100.00
19783;BME280;10051;40.294;-3.754;2023-11-18T06:08:24;95121.00;;;9.70;100.00
19783;BME280;10051;40.294;-3.754;2023-11-18T06:10:50;95114.75;;;9.76;100.00
19783;BME280;10051;40.294;-3.754;2023-11-18T06:13:22;95122.16;;;9.79;100.00
19783;BME280;10051;40.294;-3.754;2023-11-18T06:15:48;95100.25;;;9.69;100.00
19783;BME280;10051;40.294;-3.754;2023-11-18T06:18:15;95152.97;;;9.89;100.00
19783;BME280;10051;40.294;-3.754;2023-11-18T06:20:40;95077.22;;;9.21;100.00
19783;BME280;10051;40.294;-3.754;2023-11-18T06:23:06;95116.63;;;9.48;100.00
19783;BME280;10051;40.294;-3.754;2023-11-18T06:25:32;95039.09;;;9.13;100.00
19783;BME280;10051;40.294;-3.754;2023-11-18T06:28:00;95140.59;;;9.85;100.00
19783;BME280;10051;40.294;-3.754;2023-11-18T06:30:26;95174.34;;;10.03;100.00
19783;BME280;10051;40.294;-3.754;2023-11-18T06:32:51;95168.56;;;10.01;100.00
19783;BME280;10051;40.294;-3.754;2023-11-18T06:35:17;95132.66;;;9.79;100.00
19783;BME280;10051;40.294;-3.754;2023-11-18T06:37:42;95168.91;;;10.10;100.00
19783;BME280;10051;40.294;-3.754;2023-11-18T06:40:08;95128.00;;;9.87;100.00
19783;BME280;10051;40.294;-3.754;2023-11-18T06:42:44;95172.22;;;10.00;100.00
19783;BME280;10051;40.294;-3.754;2023-11-18T06:45:13;95113.06;;;9.65;100.00
19783;BME280;10051;40.294;-3.754;2023-11-18T06:47:39;95158.31;;;10.00;100.00
19783;BME280;10051;40.294;-3.754;2023-11-18T06:50:09;95133.66;;;9.73;100.00
19783;BME280;10051;40.294;-3.754;2023-11-18T06:52:37;95126.53;;;9.69;100.00
19783;BME280;10051;40.294;-3.754;2023-11-18T06:55:07;95137.41;;;9.82;100.00
19783;BME280;10051;40.294;-3.754;2023-11-18T06:57:33;95175.63;;;9.95;100.00
19783;BME280;10051;40.294;-3.754;2023-11-18T06:59:58;95132.16;;;9.55;100.00
19783;BME280;10051;40.294;-3.754;2023-11-18T07:02:24;95137.03;;;9.41;100.00
19783;BME280;10051;40.294;-3.754;2023-11-18T07:04:49;95150.09;;;9.36;100.00
19783;BME280;10051;40.294;-3.754;2023-11-18T07:07:18;95178.69;;;9.60;100.00
19783;BME280;10051;40.294;-3.754;2023-11-18T07:09:44;95123.44;;;9.22;100.00
19783;BME280;10051;40.294;-3.754;2023-11-18T07:12:10;95188.25;;;9.71;100.00
19783;BME280;10051;40.294;-3.754;2023-11-18T07:14:35;95089.81;;;9.19;100.00
19783;BME280;10051;40.294;-3.754;2023-11-18T07:17:01;95152.25;;;9.66;100.00
19783;BME280;10051;40.294;-3.754;2023-11-18T07:19:26;95162.88;;;9.82;100.00
19783;BME280;10051;40.294;-3.754;2023-11-18T07:21:54;95076.75;;;9.29;100.00
19783;BME280;10051;40.294;-3.754;2023-11-18T07:24:19;95163.56;;;10.00;100.00
19783;BME280;10051;40.294;-3.754;2023-11-18T07:26:45;95156.97;;;9.97;100.00
19783;BME280;10051;40.294;-3.754;2023-11-18T07:29:11;95118.16;;;9.77;100.00
19783;BME280;10051;40.294;-3.754;2023-11-18T07:31:36;95193.97;;;10.23;100.00
19783;BME280;10051;40.294;-3.754;2023-11-18T07:34:05;95168.72;;;9.89;100.00
19783;BME280;10051;40.294;-3.754;2023-11-18T07:36:31;95119.88;;;9.61;100.00
19783;BME280;10051;40.294;-3.754;2023-11-18T07:38:58;95133.25;;;9.59;100.00
19783;BME280;10051;40.294;-3.754;2023-11-18T07:41:27;95182.06;;;9.82;100.00
19783;BME280;10051;40.294;-3.754;2023-11-18T07:43:55;95191.59;;;9.94;100.00
19783;BME280;10051;40.294;-3.754;2023-11-18T07:46:24;95220.44;;;10.16;100.00
19783;BME280;10051;40.294;-3.754;2023-11-18T07:48:51;95193.88;;;10.12;100.00
19783;BME280;10051;40.294;-3.754;2023-11-18T07:51:21;95231.22;;;10.42;100.00
19783;BME280;10051;40.294;-3.754;2023-11-18T07:53:50;95223.84;;;10.39;100.00
19783;BME280;10051;40.294;-3.754;2023-11-18T07:56:16;95201.38;;;10.26;100.00
19783;BME280;10051;40.294;-3.754;2023-11-18T07:58:43;95206.72;;;10.36;100.00
19783;BME280;10051;40.294;-3.754;2023-11-18T08:01:12;95198.44;;;10.22;100.00
19783;BME280;10051;40.294;-3.754;2023-11-18T08:03:37;95247.94;;;10.58;100.00
19783;BME280;10051;40.294;-3.754;2023-11-18T08:06:06;95243.28;;;10.70;100.00
19783;BME280;10051;40.294;-3.754;2023-11-18T08:08:33;95243.31;;;10.76;100.00
19783;BME280;10051;40.294;-3.754;2023-11-18T08:10:58;95248.63;;;10.86;100.00
19783;BME280;10051;40.294;-3.754;2023-11-18T08:13:25;95141.69;;;10.26;100.00
19783;BME280;10051;40.294;-3.754;2023-11-18T08:15:51;95239.00;;;10.97;100.00
19783;BME280;10051;40.294;-3.754;2023-11-18T08:18:17;95248.25;;;11.05;100.00
19783;BME280;10051;40.294;-3.754;2023-11-18T08:20:44;95244.28;;;11.07;100.00
19783;BME280;10051;40.294;-3.754;2023-11-18T08:23:10;95252.56;;;11.26;100.00
19783;BME280;10051;40.294;-3.754;2023-11-18T08:25:35;95238.84;;;11.19;100.00
19783;BME280;10051;40.294;-3.754;2023-11-18T08:28:01;95253.13;;;11.34;100.00
19783;BME280;10051;40.294;-3.754;2023-11-18T08:30:27;95254.72;;;11.40;100.00
19783;BME280;10051;40.294;-3.754;2023-11-18T08:32:53;95253.47;;;11.48;100.00
19783;BME280;10051;40.294;-3.754;2023-11-18T08:35:18;95251.63;;;11.53;100.00
19783;BME280;10051;40.294;-3.754;2023-11-18T08:37:46;95172.78;;;11.26;100.00
19783;BME280;10051;40.294;-3.754;2023-11-18T08:40:12;95268.09;;;11.92;100.00
19783;BME280;10051;40.294;-3.754;2023-11-18T08:42:45;95272.41;;;12.08;100.00
19783;BME280;10051;40.294;-3.754;2023-11-18T08:45:19;95273.47;;;12.12;100.00
19783;BME280;10051;40.294;-3.754;2023-11-18T08:47:47;95217.97;;;11.76;100.00
19783;BME280;10051;40.294;-3.754;2023-11-18T08:50:17;95280.31;;;12.24;100.00
19783;BME280;10051;40.294;-3.754;2023-11-18T08:52:46;95235.41;;;11.93;100.00
19783;BME280;10051;40.294;-3.754;2023-11-18T08:55:15;95168.41;;;11.57;100.00
19783;BME280;10051;40.294;-3.754;2023-11-18T08:58:09;95284.06;;;12.43;100.00
19783;BME280;10051;40.294;-3.754;2023-11-18T09:00:45;95262.97;;;12.54;100.00
19783;BME280;10051;40.294;-3.754;2023-11-18T09:03:12;95288.81;;;12.72;100.00
19783;BME280;10051;40.294;-3.754;2023-11-18T09:05:55;95284.34;;;12.68;100.00
19783;BME280;10051;40.294;-3.754;2023-11-18T09:08:35;95289.34;;;12.64;100.00
19783;BME280;10051;40.294;-3.754;2023-11-18T09:11:02;95294.91;;;12.78;100.00
19783;BME280;10051;40.294;-3.754;2023-11-18T09:13:31;95301.22;;;12.72;100.00
19783;BME280;10051;40.294;-3.754;2023-11-18T09:16:04;95294.88;;;12.83;100.00
19783;BME280;10051;40.294;-3.754;2023-11-18T09:18:35;95303.06;;;12.92;100.00
19783;BME280;10051;40.294;-3.754;2023-11-18T09:21:08;95249.75;;;12.69;100.00
19783;BME280;10051;40.294;-3.754;2023-11-18T09:23:52;95308.59;;;13.21;100.00
19783;BME280;10051;40.294;-3.754;2023-11-18T09:26:21;95316.78;;;13.20;99.82
19783;BME280;10051;40.294;-3.754;2023-11-18T09:29:02;95313.59;;;13.13;99.54
19783;BME280;10051;40.294;-3.754;2023-11-18T09:31:28;95308.31;;;13.18;100.00
19783;BME280;10051;40.294;-3.754;2023-11-18T09:34:00;95310.94;;;13.38;99.36
19783;BME280;10051;40.294;-3.754;2023-11-18T09:36:26;95320.72;;;13.48;98.37
19783;BME280;10051;40.294;-3.754;2023-11-18T09:38:53;95316.72;;;13.51;97.56
19783;BME280;10051;40.294;-3.754;2023-11-18T09:41:22;95315.13;;;13.60;96.91
19783;BME280;10051;40.294;-3.754;2023-11-18T09:43:52;95313.22;;;13.76;96.71
19783;BME280;10051;40.294;-3.754;2023-11-18T09:46:31;95315.78;;;13.97;94.43
19783;BME280;10051;40.294;-3.754;2023-11-18T09:49:31;95318.44;;;13.92;93.00
19783;BME280;10051;40.294;-3.754;2023-11-18T09:52:05;95316.81;;;14.06;95.60
19783;BME280;10051;40.294;-3.754;2023-11-18T09:55:03;95321.22;;;14.21;94.88
19783;BME280;10051;40.294;-3.754;2023-11-18T09:57:39;95321.13;;;14.37;93.56
19783;BME280;10051;40.294;-3.754;2023-11-18T10:00:12;95315.66;;;14.23;94.07
19783;BME280;10051;40.294;-3.754;2023-11-18T10:02:52;95264.75;;;13.96;94.27
19783;BME280;10051;40.294;-3.754;2023-11-18T10:05:21;95322.66;;;14.48;93.79
19783;BME280;10051;40.294;-3.754;2023-11-18T10:07:48;95324.38;;;14.68;92.19
19783;BME280;10051;40.294;-3.754;2023-11-18T10:10:14;95318.28;;;14.73;90.03
19783;BME280;10051;40.294;-3.754;2023-11-18T10:12:45;95304.97;;;14.83;89.71
19783;BME280;10051;40.294;-3.754;2023-11-18T10:15:13;95316.50;;;14.98;87.86
19783;BME280;10051;40.294;-3.754;2023-11-18T10:17:44;95274.91;;;14.69;87.76
19783;BME280;10051;40.294;-3.754;2023-11-18T10:20:51;95319.28;;;15.12;88.47
19783;BME280;10051;40.294;-3.754;2023-11-18T10:23:18;95326.09;;;15.23;87.76
19783;BME280;10051;40.294;-3.754;2023-11-18T10:25:51;95330.66;;;15.18;86.83
19783;BME280;10051;40.294;-3.754;2023-11-18T10:30:57;95290.88;;;15.23;86.41
19783;BME280;10051;40.294;-3.754;2023-11-18T10:33:25;95307.16;;;15.35;86.43
19783;BME280;10051;40.294;-3.754;2023-11-18T10:35:56;95297.56;;;15.39;86.61
19783;BME280;10051;40.294;-3.754;2023-11-18T10:38:22;95255.06;;;15.25;84.72
19783;BME280;10051;40.294;-3.754;2023-11-18T10:40:58;95310.78;;;15.69;84.34
19783;BME280;10051;40.294;-3.754;2023-11-18T10:43:26;95295.22;;;15.62;82.62
19783;BME280;10051;40.294;-3.754;2023-11-18T10:46:10;95325.47;;;15.61;84.75
19783;BME280;10051;40.294;-3.754;2023-11-18T10:48:48;95306.94;;;15.56;84.52
19783;BME280;10051;40.294;-3.754;2023-11-18T10:51:16;95316.75;;;15.80;84.48
19783;BME280;10051;40.294;-3.754;2023-11-18T10:53:43;95310.59;;;15.89;84.64
19783;BME280;10051;40.294;-3.754;2023-11-18T10:56:31;95259.75;;;15.58;83.33
19783;BME280;10051;40.294;-3.754;2023-11-18T10:59:04;95299.00;;;15.80;82.42
19783;BME280;10051;40.294;-3.754;2023-11-18T11:01:35;95266.34;;;15.60;83.03
19783;BME280;10051;40.294;-3.754;2023-11-18T11:04:08;95299.38;;;15.68;84.95
19783;BME280;10051;40.294;-3.754;2023-11-18T11:06:44;95260.31;;;15.55;84.45
19783;BME280;10051;40.294;-3.754;2023-11-18T11:09:30;95312.31;;;15.99;84.82
19783;BME280;10051;40.294;-3.754;2023-11-18T11:12:07;95312.25;;;16.04;84.93
19783;BME280;10051;40.294;-3.754;2023-11-18T11:14:50;95307.91;;;16.33;83.54
19783;BME280;10051;40.294;-3.754;2023-11-18T11:17:19;95307.16;;;16.27;82.12
19783;BME280;10051;40.294;-3.754;2023-11-18T11:20:07;95309.75;;;16.13;82.30
19783;BME280;10051;40.294;-3.754;2023-11-18T11:28:16;95296.63;;;16.22;81.92
19783;BME280;10051;40.294;-3.754;2023-11-18T11:30:46;95296.94;;;16.40;82.48
19783;BME280;10051;40.294;-3.754;2023-11-18T11:33:17;95293.69;;;16.62;82.58
19783;BME280;10051;40.294;-3.754;2023-11-18T11:35:53;95258.53;;;16.51;81.67
19783;BME280;10051;40.294;-3.754;2023-11-18T11:38:23;95290.38;;;16.70;81.85
19783;BME280;10051;40.294;-3.754;2023-11-18T11:40:50;95213.00;;;16.44;80.61
19783;BME280;10051;40.294;-3.754;2023-11-18T11:43:18;95253.06;;;16.94;80.92
19783;BME280;10051;40.294;-3.754;2023-11-18T11:45:50;95258.69;;;17.07;78.63
19783;BME280;10051;40.294;-3.754;2023-11-18T11:48:24;95239.59;;;17.05;78.31
19783;BME280;10051;40.294;-3.754;2023-11-18T11:53:30;95215.81;;;17.14;78.03
19783;BME280;10051;40.294;-3.754;2023-11-18T11:56:01;95276.00;;;17.65;78.01
19783;BME280;10051;40.294;-3.754;2023-11-18T11:58:41;95273.44;;;17.74;77.39
19783;BME280;10051;40.294;-3.754;2023-11-18T12:01:22;95231.09;;;17.36;77.37
19783;BME280;10051;40.294;-3.754;2023-11-18T12:03:52;95233.94;;;17.26;77.98
19783;BME280;10051;40.294;-3.754;2023-11-18T12:06:26;95203.13;;;17.11;78.06
19783;BME280;10051;40.294;-3.754;2023-11-18T12:08:53;95221.03;;;17.47;78.36
19783;BME280;10051;40.294;-3.754;2023-11-18T12:11:20;95264.94;;;18.00;78.31
19783;BME280;10051;40.294;-3.754;2023-11-18T12:17:06;95260.53;;;18.32;75.37
19783;BME280;10051;40.294;-3.754;2023-11-18T12:19:39;95255.94;;;18.47;76.09
19783;BME280;10051;40.294;-3.754;2023-11-18T12:22:21;95255.09;;;18.60;75.10
19783;BME280;10051;40.294;-3.754;2023-11-18T12:27:43;95216.13;;;17.91;75.54
19783;BME280;10051;40.294;-3.754;2023-11-18T12:40:56;95197.09;;;18.11;73.63
19783;BME280;10051;40.294;-3.754;2023-11-18T12:43:49;95233.91;;;18.32;73.91
19783;BME280;10051;40.294;-3.754;2023-11-18T12:46:49;95228.22;;;18.25;73.99
19783;BME280;10051;40.294;-3.754;2023-11-18T12:49:16;95231.00;;;18.42;72.83
19783;BME280;10051;40.294;-3.754;2023-11-18T12:51:43;95215.50;;;18.45;72.84
19783;BME280;10051;40.294;-3.754;2023-11-18T12:54:11;95202.03;;;18.41;71.65
19783;BME280;10051;40.294;-3.754;2023-11-18T12:56:41;95227.25;;;18.43;72.41
19783;BME280;10051;40.294;-3.754;2023-11-18T12:59:17;95228.94;;;18.39;70.48
19783;BME280;10051;40.294;-3.754;2023-11-18T13:01:52;95223.28;;;18.32;70.17
19783;BME280;10051;40.294;-3.754;2023-11-18T13:04:27;95216.47;;;18.26;70.68
19783;BME280;10051;40.294;-3.754;2023-11-18T13:06:53;95198.09;;;18.16;70.43
19783;BME280;10051;40.294;-3.754;2023-11-18T13:09:23;95223.00;;;18.42;70.84
19783;BME280;10051;40.294;-3.754;2023-11-18T13:11:58;95218.91;;;18.59;69.58
19783;BME280;10051;40.294;-3.754;2023-11-18T13:14:28;95218.34;;;18.71;68.70
19783;BME280;10051;40.294;-3.754;2023-11-18T13:16:56;95201.50;;;18.84;68.46
19783;BME280;10051;40.294;-3.754;2023-11-18T13:19:28;95157.03;;;18.62;67.57
19783;BME280;10051;40.294;-3.754;2023-11-18T13:21:59;95169.50;;;18.76;66.37
19783;BME280;10051;40.294;-3.754;2023-11-18T13:24:27;95202.22;;;18.99;66.64
19783;BME280;10051;40.294;-3.754;2023-11-18T13:26:55;95199.00;;;19.11;66.40